« Back
NWS Peachtree City, Ga » Text Product » CSG Terminal Aerodrome Forecast


Printer-friendly Version
Current Version              Previous Versions:   1  2  3  4  5  6  7  8  9  

Terminal Aerodrome Forecast

141
FTUS42 KFFC 041133
TAFCSG
TAF
KCSG 041133Z 0412/0512 25006KT P6SM SCT005 BKN012
     FM041600 21010G20KT P6SM SCT008 BKN012
     FM041800 20010G20KT P6SM BKN025
     FM042000 21008KT P6SM BKN040
     FM050200 20007KT P6SM BKN025
     FM050600 20008KT 6SM SHRA BR OVC006=

USA.gov is the U.S. government's official web portal to all federal, state and local government web resources and services.